createdAt,value
2018-10-21T00:00:32.514Z,3.29
2018-10-21T00:01:32.437Z,3.39
2018-10-21T00:02:32.506Z,3.43
2018-10-21T00:03:32.413Z,3.35
2018-10-21T00:04:32.411Z,3.42
2018-10-21T00:05:32.625Z,3.45
2018-10-21T00:06:32.383Z,3.48
2018-10-21T00:07:32.377Z,3.45
2018-10-21T00:08:32.362Z,3.51
2018-10-21T00:09:32.352Z,3.47
2018-10-21T00:10:32.344Z,3.50
2018-10-21T00:11:32.367Z,3.47
2018-10-21T00:12:42.440Z,3.47
2018-10-21T00:13:32.310Z,3.47
2018-10-21T00:14:32.300Z,3.43
2018-10-21T00:15:32.416Z,3.45
2018-10-21T00:16:32.277Z,3.43
2018-10-21T00:17:32.405Z,3.39
2018-10-21T00:18:32.262Z,3.42
2018-10-21T00:19:32.245Z,3.48
2018-10-21T00:20:32.242Z,3.47
2018-10-21T00:21:32.218Z,3.47
2018-10-21T00:22:32.219Z,3.48
2018-10-21T00:23:32.237Z,3.47
2018-10-21T00:24:32.196Z,3.45
2018-10-21T00:25:32.189Z,3.48
2018-10-21T00:26:32.170Z,3.47
2018-10-21T00:27:32.164Z,3.50
2018-10-21T00:28:32.148Z,3.47
2018-10-21T00:29:32.178Z,3.48
2018-10-21T00:30:32.125Z,3.54
2018-10-21T00:31:32.120Z,3.57
2018-10-21T00:32:32.110Z,3.61
2018-10-21T00:33:32.097Z,3.57
2018-10-21T00:34:32.084Z,3.57
2018-10-21T00:35:32.088Z,3.54
2018-10-21T00:36:32.066Z,3.55
2018-10-21T00:37:32.049Z,3.55
2018-10-21T00:38:32.038Z,3.57
2018-10-21T00:39:32.034Z,3.54
2018-10-21T00:40:32.021Z,3.57
2018-10-21T00:41:32.049Z,3.58
2018-10-21T00:42:31.993Z,3.58
2018-10-21T00:43:42.875Z,3.65
2018-10-21T00:44:31.968Z,3.50
2018-10-21T00:45:31.964Z,3.54
2018-10-21T00:46:31.952Z,3.51
2018-10-21T00:47:31.952Z,3.65
2018-10-21T00:48:31.926Z,3.55
2018-10-21T00:49:31.928Z,3.69
2018-10-21T00:50:31.915Z,3.62
2018-10-21T00:51:31.899Z,3.62
2018-10-21T00:52:31.886Z,3.60
2018-10-21T00:53:31.915Z,3.69
2018-10-21T00:54:31.863Z,3.60
2018-10-21T00:55:31.853Z,3.54
2018-10-21T00:56:31.844Z,3.58
2018-10-21T00:57:31.834Z,3.52
2018-10-21T00:58:31.821Z,3.58
2018-10-21T00:59:31.855Z,3.52
2018-10-21T01:00:31.807Z,3.55
2018-10-21T01:01:31.791Z,3.55
2018-10-21T01:02:31.775Z,3.55
2018-10-21T01:03:31.771Z,3.55
2018-10-21T01:04:31.760Z,3.52
2018-10-21T01:05:31.782Z,3.55
2018-10-21T01:06:31.735Z,3.52
2018-10-21T01:07:31.723Z,3.55
2018-10-21T01:08:31.844Z,3.52
2018-10-21T01:09:31.732Z,3.60
2018-10-21T01:10:31.703Z,3.57
2018-10-21T01:11:31.713Z,3.55
2018-10-21T01:12:31.673Z,3.58
2018-10-21T01:13:31.663Z,3.58
2018-10-21T01:14:42.019Z,3.51
2018-10-21T01:15:31.641Z,3.61
2018-10-21T01:16:31.626Z,3.68
2018-10-21T01:17:31.630Z,3.55
2018-10-21T01:18:31.603Z,3.61
2018-10-21T01:19:31.595Z,3.61
2018-10-21T01:20:31.584Z,3.72
2018-10-21T01:21:31.573Z,3.65
2018-10-21T01:22:31.566Z,3.57
2018-10-21T01:23:31.592Z,3.58
2018-10-21T01:24:31.540Z,3.57
2018-10-21T01:25:31.534Z,3.66
2018-10-21T01:26:31.517Z,3.65
2018-10-21T01:27:31.509Z,3.58
2018-10-21T01:28:31.501Z,3.60
2018-10-21T01:29:31.525Z,3.65
2018-10-21T01:30:31.471Z,3.65
2018-10-21T01:31:31.463Z,3.58
2018-10-21T01:32:31.454Z,3.66
2018-10-21T01:33:31.444Z,3.70
2018-10-21T01:34:31.429Z,3.75
2018-10-21T01:35:31.459Z,3.78
2018-10-21T01:36:31.579Z,3.69
2018-10-21T01:37:31.403Z,3.72
2018-10-21T01:38:31.383Z,3.69
2018-10-21T01:39:31.372Z,3.75
2018-10-21T01:40:31.364Z,3.68
2018-10-21T01:41:31.398Z,3.76
2018-10-21T01:42:31.349Z,3.72
2018-10-21T01:43:31.334Z,3.78
2018-10-21T01:44:31.324Z,3.72
2018-10-21T01:45:43.108Z,3.66
2018-10-21T01:46:31.302Z,3.78
2018-10-21T01:47:31.326Z,3.75
2018-10-21T01:48:31.279Z,3.80
2018-10-21T01:49:31.271Z,3.78
2018-10-21T01:50:31.254Z,3.73
2018-10-21T01:51:31.246Z,3.75
2018-10-21T01:52:31.301Z,3.76
2018-10-21T01:53:31.242Z,3.83
2018-10-21T01:54:31.217Z,3.73
2018-10-21T01:55:31.201Z,3.79
2018-10-21T01:56:31.190Z,3.78
2018-10-21T01:57:31.180Z,3.75
2018-10-21T01:58:31.166Z,3.75
2018-10-21T01:59:31.194Z,3.83
2018-10-21T02:00:31.149Z,3.76
2018-10-21T02:01:31.132Z,3.75
2018-10-21T02:02:31.126Z,3.86
2018-10-21T02:03:31.123Z,3.87
2018-10-21T02:04:31.105Z,3.93
2018-10-21T02:05:31.134Z,3.87
2018-10-21T02:06:31.078Z,3.83
2018-10-21T02:07:31.072Z,3.90
2018-10-21T02:08:31.065Z,3.87
2018-10-21T02:09:31.047Z,3.88
2018-10-21T02:10:31.043Z,3.90
2018-10-21T02:11:31.201Z,3.87
2018-10-21T02:12:31.022Z,3.88
2018-10-21T02:13:31.002Z,3.87
2018-10-21T02:14:30.997Z,3.94
2018-10-21T02:15:30.985Z,3.90
2018-10-21T02:16:41.483Z,3.86
2018-10-21T02:17:30.963Z,3.86
2018-10-21T02:18:30.959Z,3.93
2018-10-21T02:19:30.939Z,3.79
2018-10-21T02:20:30.931Z,3.96
2018-10-21T02:21:30.920Z,3.79
2018-10-21T02:22:30.955Z,3.83
2018-10-21T02:23:30.894Z,3.91
2018-10-21T02:24:30.889Z,3.96
2018-10-21T02:25:30.880Z,3.93
2018-10-21T02:26:31.010Z,3.84
2018-10-21T02:27:30.868Z,3.84
2018-10-21T02:28:30.882Z,3.90
2018-10-21T02:29:30.835Z,3.96
2018-10-21T02:30:30.833Z,3.98
2018-10-21T02:31:30.814Z,3.93
2018-10-21T02:32:30.803Z,4.04
2018-10-21T02:33:30.897Z,3.98
2018-10-21T02:34:30.981Z,3.90
2018-10-21T02:35:30.775Z,3.96
2018-10-21T02:36:30.757Z,3.97
2018-10-21T02:37:30.850Z,3.91
2018-10-21T02:38:30.729Z,3.90
2018-10-21T02:39:30.722Z,3.83
2018-10-21T02:40:30.761Z,3.79
2018-10-21T02:41:30.704Z,3.80
2018-10-21T02:42:30.690Z,3.86
2018-10-21T02:43:30.680Z,3.97
2018-10-21T02:44:30.678Z,3.93
2018-10-21T02:45:30.655Z,3.90
2018-10-21T02:46:30.684Z,3.93
2018-10-21T02:47:41.031Z,3.88
2018-10-21T02:48:30.624Z,3.84
2018-10-21T02:49:30.611Z,3.84
2018-10-21T02:50:30.600Z,3.88
2018-10-21T02:51:30.590Z,3.83
2018-10-21T02:52:30.612Z,3.80
2018-10-21T02:53:30.576Z,3.83
2018-10-21T02:54:30.559Z,3.84
2018-10-21T02:55:30.544Z,3.87
2018-10-21T02:56:30.532Z,3.80
2018-10-21T02:57:30.542Z,3.80
2018-10-21T02:58:30.537Z,3.83
2018-10-21T02:59:30.503Z,3.70
2018-10-21T03:00:30.489Z,3.86
2018-10-21T03:01:30.481Z,3.90
2018-10-21T03:02:30.472Z,3.87
2018-10-21T03:03:30.464Z,3.79
2018-10-21T03:04:30.498Z,3.83
2018-10-21T03:05:30.450Z,3.79
2018-10-21T03:06:30.432Z,3.80
2018-10-21T03:07:30.413Z,3.76
2018-10-21T03:08:30.409Z,3.84
2018-10-21T03:09:30.392Z,3.83
2018-10-21T03:10:30.481Z,3.88
2018-10-21T03:11:30.376Z,3.86
2018-10-21T03:12:30.368Z,3.86
2018-10-21T03:13:30.351Z,3.84
2018-10-21T03:14:30.354Z,3.84
2018-10-21T03:15:30.329Z,3.80
2018-10-21T03:16:30.338Z,3.90
2018-10-21T03:17:30.303Z,3.83
2018-10-21T03:18:40.385Z,3.79
2018-10-21T03:19:30.286Z,3.83
2018-10-21T03:20:30.272Z,3.79
2018-10-21T03:21:30.261Z,3.76
2018-10-21T03:22:30.288Z,3.79
2018-10-21T03:23:30.242Z,3.83
2018-10-21T03:24:30.232Z,3.80
2018-10-21T03:25:30.232Z,3.78
2018-10-21T03:26:30.209Z,3.73
2018-10-21T03:27:30.201Z,3.75
2018-10-21T03:28:30.231Z,3.79
2018-10-21T03:29:30.179Z,3.78
2018-10-21T03:30:30.164Z,3.79
2018-10-21T03:31:30.161Z,3.80
2018-10-21T03:32:30.155Z,3.78
2018-10-21T03:33:30.171Z,3.87
2018-10-21T03:34:30.159Z,3.76
2018-10-21T03:35:30.114Z,3.84
2018-10-21T03:36:30.106Z,3.79
2018-10-21T03:37:30.099Z,3.75
2018-10-21T03:38:30.084Z,3.73
2018-10-21T03:39:30.071Z,3.78
2018-10-21T03:40:30.123Z,3.86
2018-10-21T03:41:30.051Z,3.79
2018-10-21T03:42:30.038Z,3.79
2018-10-21T03:43:30.029Z,3.79
2018-10-21T03:44:30.016Z,3.80
2018-10-21T03:45:30.027Z,3.84
2018-10-21T03:46:30.032Z,3.73
2018-10-21T03:47:29.985Z,3.72
2018-10-21T03:48:29.971Z,3.80
2018-10-21T03:49:40.676Z,3.75
2018-10-21T03:50:29.953Z,3.78
2018-10-21T03:51:29.935Z,3.65
2018-10-21T03:52:29.965Z,3.73
2018-10-21T03:53:29.920Z,3.75
2018-10-21T03:54:29.904Z,3.72
2018-10-21T03:55:29.893Z,3.72
2018-10-21T03:56:29.888Z,3.73
2018-10-21T03:57:29.882Z,3.69
2018-10-21T03:58:29.900Z,3.75
2018-10-21T03:59:29.856Z,3.76
2018-10-21T04:00:29.849Z,3.79
2018-10-21T04:01:29.832Z,3.80
2018-10-21T04:02:29.817Z,3.72
2018-10-21T04:03:29.860Z,3.73
2018-10-21T04:04:29.819Z,3.73
2018-10-21T04:05:29.796Z,3.69
2018-10-21T04:06:29.780Z,3.72
2018-10-21T04:07:29.763Z,3.75
2018-10-21T04:08:29.754Z,3.76
2018-10-21T04:09:29.742Z,3.73
2018-10-21T04:10:29.777Z,3.66
2018-10-21T04:11:29.720Z,3.69
2018-10-21T04:12:29.713Z,3.68
2018-10-21T04:13:29.700Z,3.70
2018-10-21T04:14:29.694Z,3.58
2018-10-21T04:15:29.677Z,3.66
2018-10-21T04:16:29.707Z,3.61
2018-10-21T04:17:29.663Z,3.58
2018-10-21T04:18:29.649Z,3.58
2018-10-21T04:19:29.638Z,3.66
2018-10-21T04:20:39.947Z,3.66
2018-10-21T04:21:29.609Z,3.58
2018-10-21T04:22:29.617Z,3.55
2018-10-21T04:23:29.593Z,3.65
2018-10-21T04:24:29.585Z,3.72
2018-10-21T04:25:29.577Z,3.65
2018-10-21T04:26:29.558Z,3.54
2018-10-21T04:27:29.549Z,3.57
2018-10-21T04:28:29.581Z,3.57
2018-10-21T04:29:29.534Z,3.60
2018-10-21T04:30:29.515Z,3.66
2018-10-21T04:31:29.504Z,3.51
2018-10-21T04:32:29.493Z,3.58
2018-10-21T04:33:29.480Z,3.65
2018-10-21T04:34:29.681Z,3.65
2018-10-21T04:35:29.514Z,3.51
2018-10-21T04:36:29.450Z,3.55
2018-10-21T04:37:29.445Z,3.62
2018-10-21T04:38:29.431Z,3.57
2018-10-21T04:39:29.418Z,3.62
2018-10-21T04:40:29.488Z,3.58
2018-10-21T04:41:29.394Z,3.65
2018-10-21T04:42:29.388Z,3.51
2018-10-21T04:43:29.377Z,3.60
2018-10-21T04:44:29.361Z,3.45
2018-10-21T04:45:29.353Z,3.45
2018-10-21T04:46:29.448Z,3.51
2018-10-21T04:47:29.327Z,3.48
2018-10-21T04:48:29.319Z,3.54
2018-10-21T04:49:29.319Z,3.39
2018-10-21T04:50:29.300Z,3.35
2018-10-21T04:51:39.571Z,3.42
2018-10-21T04:52:29.278Z,3.39
2018-10-21T04:53:29.268Z,3.40
2018-10-21T04:54:29.257Z,3.36
2018-10-21T04:55:29.241Z,3.36
2018-10-21T04:56:29.229Z,3.43
2018-10-21T04:57:29.401Z,3.40
2018-10-21T04:58:29.213Z,3.26
2018-10-21T04:59:29.202Z,3.33
2018-10-21T05:00:29.194Z,3.33
2018-10-21T05:01:29.180Z,3.33
2018-10-21T05:02:29.165Z,3.23
2018-10-21T05:03:29.195Z,3.26
2018-10-21T05:04:29.149Z,3.20
2018-10-21T05:05:29.135Z,3.33
2018-10-21T05:06:29.124Z,3.29
2018-10-21T05:07:29.186Z,3.28
2018-10-21T05:08:29.102Z,3.20
2018-10-21T05:09:29.285Z,3.21
2018-10-21T05:10:29.081Z,3.35
2018-10-21T05:11:29.068Z,3.28
2018-10-21T05:12:29.065Z,3.31
2018-10-21T05:13:29.049Z,3.31
2018-10-21T05:14:29.036Z,3.23
2018-10-21T05:15:29.068Z,3.24
2018-10-21T05:16:29.070Z,3.24
2018-10-21T05:17:29.015Z,3.18
2018-10-21T05:18:28.996Z,3.28
2018-10-21T05:19:28.982Z,3.14
2018-10-21T05:20:28.972Z,3.08
2018-10-21T05:21:29.001Z,3.17
2018-10-21T05:22:41.111Z,3.14
2018-10-21T05:23:28.935Z,3.03
2018-10-21T05:24:28.924Z,3.15
2018-10-21T05:25:28.918Z,3.21
2018-10-21T05:26:28.906Z,3.11
2018-10-21T05:27:28.927Z,3.08
2018-10-21T05:28:28.887Z,3.11
2018-10-21T05:29:28.871Z,3.03
2018-10-21T05:30:28.880Z,3.00
2018-10-21T05:31:28.848Z,3.08
2018-10-21T05:32:28.838Z,3.13
2018-10-21T05:33:28.864Z,3.03
2018-10-21T05:34:28.812Z,3.17
2018-10-21T05:35:28.812Z,3.11
2018-10-21T05:36:28.796Z,3.17
2018-10-21T05:37:28.785Z,3.05
2018-10-21T05:38:28.777Z,3.18
2018-10-21T05:39:28.830Z,3.18
2018-10-21T05:40:28.797Z,3.06
2018-10-21T05:41:28.744Z,2.99
2018-10-21T05:42:28.730Z,2.77
2018-10-21T05:43:28.720Z,2.79
2018-10-21T05:44:28.707Z,2.89
2018-10-21T05:45:28.865Z,2.84
2018-10-21T05:46:28.688Z,2.87
2018-10-21T05:47:28.675Z,2.87
2018-10-21T05:48:28.666Z,2.82
2018-10-21T05:49:28.663Z,2.82
2018-10-21T05:50:28.651Z,2.87
2018-10-21T05:51:28.670Z,2.93
2018-10-21T05:52:28.620Z,2.95
2018-10-21T05:53:38.611Z,2.89
2018-10-21T05:54:28.599Z,2.96
2018-10-21T05:55:28.585Z,3.00
2018-10-21T05:56:28.577Z,2.95
2018-10-21T05:57:28.599Z,2.90
2018-10-21T05:58:28.713Z,2.78
2018-10-21T05:59:28.543Z,2.78
2018-10-21T06:00:28.538Z,2.87
2018-10-21T06:01:28.529Z,2.84
2018-10-21T06:02:28.512Z,2.90
2018-10-21T06:03:28.538Z,2.90
2018-10-21T06:04:28.489Z,2.99
2018-10-21T06:05:28.475Z,3.02
2018-10-21T06:06:28.470Z,2.97
2018-10-21T06:07:28.463Z,3.11
2018-10-21T06:08:28.474Z,3.05
2018-10-21T06:09:28.471Z,3.05
2018-10-21T06:10:28.425Z,3.08
2018-10-21T06:11:28.409Z,3.03
2018-10-21T06:12:28.406Z,3.08
2018-10-21T06:13:28.400Z,3.02
2018-10-21T06:14:28.379Z,3.02
2018-10-21T06:15:28.586Z,3.10
2018-10-21T06:16:28.356Z,3.05
2018-10-21T06:17:28.349Z,3.05
2018-10-21T06:18:28.383Z,3.00
2018-10-21T06:19:28.325Z,2.90
2018-10-21T06:20:28.322Z,2.97
2018-10-21T06:21:28.340Z,2.90
2018-10-21T06:22:28.297Z,2.96
2018-10-21T06:23:28.321Z,3.00
2018-10-21T06:24:40.104Z,2.95
2018-10-21T06:25:28.256Z,3.03
2018-10-21T06:26:28.243Z,2.99
2018-10-21T06:27:28.301Z,2.99
2018-10-21T06:28:28.229Z,3.08
2018-10-21T06:29:28.219Z,3.11
2018-10-21T06:30:28.217Z,2.99
2018-10-21T06:31:28.193Z,3.11
2018-10-21T06:32:28.187Z,3.00
2018-10-21T06:33:28.221Z,3.11
2018-10-21T06:34:28.164Z,3.13
2018-10-21T06:35:28.155Z,3.06
2018-10-21T06:36:28.152Z,3.05
2018-10-21T06:37:28.137Z,3.00
2018-10-21T06:38:28.118Z,3.17
2018-10-21T06:39:28.289Z,3.08
2018-10-21T06:40:28.104Z,3.10
2018-10-21T06:41:28.082Z,3.18
2018-10-21T06:42:28.079Z,3.14
2018-10-21T06:43:28.063Z,3.05
2018-10-21T06:44:28.053Z,3.06
2018-10-21T06:45:28.284Z,3.10
2018-10-21T06:46:28.036Z,3.10
2018-10-21T06:47:28.024Z,3.10
2018-10-21T06:48:28.035Z,3.03
2018-10-21T06:49:28.001Z,3.02
2018-10-21T06:50:27.992Z,3.05
2018-10-21T06:51:28.008Z,3.00
2018-10-21T06:52:27.969Z,3.03
2018-10-21T06:53:27.964Z,3.08
2018-10-21T06:54:27.942Z,3.11
2018-10-21T06:55:37.854Z,3.15
2018-10-21T06:56:27.992Z,3.20
2018-10-21T06:57:28.155Z,3.15
2018-10-21T06:58:27.899Z,3.32
2018-10-21T06:59:27.893Z,3.42
2018-10-21T07:00:27.877Z,3.40
2018-10-21T07:01:28.599Z,3.39
2018-10-21T07:02:27.859Z,3.36
2018-10-21T07:03:28.021Z,3.45
2018-10-21T07:04:27.903Z,3.40
2018-10-21T07:05:27.823Z,3.36
2018-10-21T07:06:27.812Z,3.43
2018-10-21T07:07:27.802Z,3.55
2018-10-21T07:08:27.796Z,3.54
2018-10-21T07:09:27.827Z,3.55
2018-10-21T07:10:27.772Z,3.52
2018-10-21T07:11:27.763Z,3.58
2018-10-21T07:12:27.745Z,3.55
2018-10-21T07:13:27.744Z,3.62
2018-10-21T07:14:27.727Z,3.72
2018-10-21T07:15:27.775Z,3.78
2018-10-21T07:16:27.741Z,3.91
2018-10-21T07:17:27.694Z,4.00
2018-10-21T07:18:27.681Z,4.02
2018-10-21T07:19:27.682Z,4.15
2018-10-21T07:20:27.666Z,4.05
2018-10-21T07:21:27.820Z,3.97
2018-10-21T07:22:27.642Z,3.83
2018-10-21T07:23:27.630Z,3.75
2018-10-21T07:24:28.591Z,3.80
2018-10-21T07:25:27.608Z,3.87
2018-10-21T07:26:38.235Z,3.80
2018-10-21T07:27:27.584Z,3.93
2018-10-21T07:28:27.624Z,4.04
2018-10-21T07:29:27.567Z,4.14
2018-10-21T07:30:27.560Z,4.22
2018-10-21T07:31:27.541Z,4.24
2018-10-21T07:32:27.575Z,4.37
2018-10-21T07:33:27.522Z,4.45
2018-10-21T07:34:27.512Z,4.55
2018-10-21T07:35:27.500Z,4.52
2018-10-21T07:36:27.591Z,4.59
2018-10-21T07:37:27.473Z,4.50
2018-10-21T07:38:27.501Z,4.50
2018-10-21T07:39:27.459Z,4.44
2018-10-21T07:40:27.451Z,4.34
2018-10-21T07:41:27.431Z,4.30
2018-10-21T07:42:27.425Z,4.37
2018-10-21T07:43:27.422Z,4.47
2018-10-21T07:44:27.441Z,4.47
2018-10-21T07:45:27.394Z,4.50
2018-10-21T07:46:27.388Z,4.51
2018-10-21T07:47:27.376Z,4.48
2018-10-21T07:48:27.365Z,4.55
2018-10-21T07:49:27.354Z,4.62
2018-10-21T07:50:27.354Z,4.58
2018-10-21T07:51:27.333Z,4.69
2018-10-21T07:52:27.316Z,4.66
2018-10-21T07:53:27.302Z,4.62
2018-10-21T07:54:27.293Z,4.59
2018-10-21T07:55:27.316Z,4.62
2018-10-21T07:56:27.308Z,4.77
2018-10-21T07:57:37.612Z,4.84
2018-10-21T07:58:27.247Z,4.85
2018-10-21T07:59:27.241Z,4.97
2018-10-21T08:00:27.229Z,4.91
2018-10-21T08:01:27.346Z,5.00
2018-10-21T08:02:27.227Z,4.94
2018-10-21T08:03:27.196Z,5.00
2018-10-21T08:04:27.187Z,4.97
2018-10-21T08:05:27.175Z,4.80
2018-10-21T08:06:27.160Z,4.77
2018-10-21T08:07:27.156Z,4.65
2018-10-21T08:08:27.233Z,4.51
2018-10-21T08:09:27.131Z,4.51
2018-10-21T08:10:27.127Z,4.58
2018-10-21T08:11:27.114Z,4.73
2018-10-21T08:12:27.107Z,5.04
2018-10-21T08:13:27.091Z,5.24
2018-10-21T08:14:27.185Z,5.38
2018-10-21T08:15:27.073Z,5.35
2018-10-21T08:16:27.055Z,5.28
2018-10-21T08:17:27.045Z,5.17
2018-10-21T08:18:27.030Z,5.02
2018-10-21T08:19:27.019Z,4.96
2018-10-21T08:20:27.055Z,5.04
2018-10-21T08:21:27.010Z,5.07
2018-10-21T08:22:26.984Z,5.03
2018-10-21T08:23:26.973Z,4.97
2018-10-21T08:24:26.972Z,4.97
2018-10-21T08:25:26.960Z,4.96
2018-10-21T08:26:26.987Z,4.96
2018-10-21T08:27:27.102Z,5.02
2018-10-21T08:28:37.624Z,4.92
2018-10-21T08:29:26.910Z,4.88
2018-10-21T08:30:26.936Z,5.00
2018-10-21T08:31:26.890Z,5.00
2018-10-21T08:32:26.921Z,5.06
2018-10-21T08:33:26.869Z,5.24
2018-10-21T08:34:26.853Z,5.30
2018-10-21T08:35:26.854Z,5.31
2018-10-21T08:36:26.837Z,5.38
2018-10-21T08:37:26.825Z,5.43
2018-10-21T08:38:26.834Z,5.38
2018-10-21T08:39:26.813Z,5.31
2018-10-21T08:40:26.794Z,5.06
2018-10-21T08:41:26.783Z,5.07
2018-10-21T08:42:26.775Z,5.03
2018-10-21T08:43:26.765Z,4.96
2018-10-21T08:44:26.765Z,4.72
2018-10-21T08:45:26.737Z,4.80
2018-10-21T08:46:26.799Z,4.73
2018-10-21T08:47:26.715Z,4.92
2018-10-21T08:48:26.711Z,4.92
2018-10-21T08:49:26.744Z,4.92
2018-10-21T08:50:26.726Z,5.06
2018-10-21T08:51:26.670Z,5.12
2018-10-21T08:52:26.661Z,5.24
2018-10-21T08:53:26.661Z,5.06
2018-10-21T08:54:26.635Z,5.22
2018-10-21T08:55:26.627Z,5.30
2018-10-21T08:56:26.641Z,5.39
2018-10-21T08:57:26.605Z,5.42
2018-10-21T08:58:26.609Z,5.40
2018-10-21T08:59:36.674Z,5.45
2018-10-21T09:00:26.574Z,5.48
2018-10-21T09:01:26.561Z,5.45
2018-10-21T09:02:26.707Z,5.46
2018-10-21T09:03:26.540Z,5.51
2018-10-21T09:04:26.536Z,5.45
2018-10-21T09:05:26.527Z,5.36
2018-10-21T09:06:26.520Z,5.42
2018-10-21T09:07:26.500Z,5.38
2018-10-21T09:08:26.508Z,5.35
2018-10-21T09:09:26.473Z,5.40
2018-10-21T09:10:26.511Z,5.39
2018-10-21T09:11:26.449Z,5.43
2018-10-21T09:12:26.437Z,5.53
2018-10-21T09:13:26.436Z,5.58
2018-10-21T09:14:26.465Z,5.61
2018-10-21T09:15:26.483Z,5.76
2018-10-21T09:16:26.401Z,5.61
2018-10-21T09:17:26.390Z,5.68
2018-10-21T09:18:26.376Z,5.53
2018-10-21T09:19:26.364Z,5.43
2018-10-21T09:20:26.398Z,5.54
2018-10-21T09:21:26.350Z,5.42
2018-10-21T09:22:26.335Z,5.63
2018-10-21T09:23:26.324Z,5.78
2018-10-21T09:24:26.313Z,5.85
2018-10-21T09:25:26.302Z,5.94
2018-10-21T09:26:26.324Z,6.00
2018-10-21T09:27:26.289Z,6.08
2018-10-21T09:28:26.277Z,6.14
2018-10-21T09:29:26.258Z,5.99
2018-10-21T09:30:36.911Z,6.12
2018-10-21T09:31:26.236Z,6.18
2018-10-21T09:32:26.263Z,6.33
2018-10-21T09:33:26.284Z,6.19
2018-10-21T09:34:26.205Z,6.19
2018-10-21T09:35:26.191Z,6.25
2018-10-21T09:36:26.696Z,6.70
2018-10-21T09:37:26.167Z,7.13
2018-10-21T09:38:26.175Z,7.74
2018-10-21T09:39:26.144Z,7.98
2018-10-21T09:40:26.143Z,8.20
2018-10-21T09:41:26.127Z,8.40
2018-10-21T09:42:26.119Z,8.53
2018-10-21T09:43:26.101Z,8.71
2018-10-21T09:44:26.131Z,8.86
2018-10-21T09:45:26.080Z,8.40
2018-10-21T09:46:26.074Z,8.58
2018-10-21T09:47:26.064Z,8.40
2018-10-21T09:48:26.053Z,8.20
2018-10-21T09:49:26.042Z,8.33
2018-10-21T09:50:26.062Z,8.66
2018-10-21T09:51:26.015Z,9.01
2018-10-21T09:52:26.014Z,9.14
2018-10-21T09:53:25.995Z,8.86
2018-10-21T09:54:25.984Z,9.15
2018-10-21T09:55:25.967Z,9.24
2018-10-21T09:56:25.998Z,9.58
2018-10-21T09:57:25.966Z,9.51
2018-10-21T09:58:25.992Z,9.53
2018-10-21T09:59:25.928Z,9.48
2018-10-21T10:00:25.916Z,9.76
2018-10-21T10:01:36.769Z,9.42
2018-10-21T10:02:25.888Z,9.23
2018-10-21T10:03:25.878Z,9.10
2018-10-21T10:04:25.879Z,8.99
2018-10-21T10:05:25.958Z,8.89
2018-10-21T10:06:25.844Z,9.14
2018-10-21T10:07:25.879Z,9.11
2018-10-21T10:08:25.826Z,8.87
2018-10-21T10:09:25.821Z,8.80
2018-10-21T10:10:25.802Z,9.13
2018-10-21T10:11:25.793Z,9.14
2018-10-21T10:12:25.776Z,9.13
2018-10-21T10:13:25.801Z,9.39
2018-10-21T10:14:25.764Z,9.47
2018-10-21T10:15:25.743Z,9.29
2018-10-21T10:16:25.734Z,9.23
2018-10-21T10:17:25.770Z,8.94
2018-10-21T10:18:25.722Z,8.94
2018-10-21T10:19:25.740Z,8.76
2018-10-21T10:20:25.693Z,8.76
2018-10-21T10:21:25.679Z,8.92
2018-10-21T10:22:25.667Z,8.87
2018-10-21T10:23:25.693Z,8.74
2018-10-21T10:24:25.645Z,8.38
2018-10-21T10:25:25.677Z,8.05
2018-10-21T10:26:25.629Z,8.05
2018-10-21T10:27:25.615Z,8.01
2018-10-21T10:28:25.622Z,8.02
2018-10-21T10:29:25.594Z,8.01
2018-10-21T10:30:25.640Z,8.05
2018-10-21T10:31:25.611Z,8.05
2018-10-21T10:32:35.712Z,8.00
2018-10-21T10:33:25.549Z,8.07
2018-10-21T10:34:25.533Z,8.05
2018-10-21T10:35:25.525Z,7.92
2018-10-21T10:36:25.510Z,7.92
2018-10-21T10:37:25.785Z,7.92
2018-10-21T10:38:25.498Z,7.89
2018-10-21T10:39:25.480Z,7.90
2018-10-21T10:40:25.468Z,7.86
2018-10-21T10:41:25.456Z,8.00
2018-10-21T10:42:25.518Z,8.04
2018-10-21T10:43:25.474Z,8.01
2018-10-21T10:44:25.425Z,7.98
2018-10-21T10:45:25.414Z,8.02
2018-10-21T10:46:25.404Z,8.02
2018-10-21T10:47:25.400Z,7.98
2018-10-21T10:48:25.381Z,8.11
2018-10-21T10:49:25.415Z,8.15
2018-10-21T10:50:25.366Z,8.26
2018-10-21T10:51:25.347Z,8.18
2018-10-21T10:52:25.340Z,8.23
2018-10-21T10:53:25.324Z,8.15
2018-10-21T10:54:25.313Z,8.02
2018-10-21T10:55:25.317Z,8.16
2018-10-21T10:56:25.289Z,8.20
2018-10-21T10:57:25.307Z,8.19
2018-10-21T10:58:25.272Z,8.15
2018-10-21T10:59:25.267Z,8.12
2018-10-21T11:00:25.258Z,8.26
2018-10-21T11:01:25.274Z,8.25
2018-10-21T11:02:25.226Z,8.19
2018-10-21T11:03:35.233Z,8.20
2018-10-21T11:04:25.201Z,8.19
2018-10-21T11:05:25.194Z,8.12
2018-10-21T11:06:25.226Z,8.22
2018-10-21T11:07:25.205Z,8.34
2018-10-21T11:08:25.164Z,8.33
2018-10-21T11:09:25.149Z,8.40
2018-10-21T11:10:25.146Z,8.40
2018-10-21T11:11:25.128Z,8.50
2018-10-21T11:12:25.114Z,8.58
2018-10-21T11:13:25.312Z,8.56
2018-10-21T11:14:25.094Z,8.53
2018-10-21T11:15:25.083Z,8.59
2018-10-21T11:16:25.066Z,8.63
2018-10-21T11:17:25.057Z,8.63
2018-10-21T11:18:25.044Z,8.63
2018-10-21T11:19:25.209Z,8.76
2018-10-21T11:20:25.034Z,8.73
2018-10-21T11:21:25.018Z,8.74
2018-10-21T11:22:25.082Z,8.79
2018-10-21T11:23:24.991Z,8.80
2018-10-21T11:24:24.986Z,8.80
2018-10-21T11:25:25.021Z,8.95
2018-10-21T11:26:24.964Z,9.01
2018-10-21T11:27:24.954Z,9.10
2018-10-21T11:28:24.939Z,9.15
2018-10-21T11:29:24.924Z,9.20
2018-10-21T11:30:24.920Z,9.57
2018-10-21T11:31:24.941Z,9.87
2018-10-21T11:32:24.894Z,10.30
2018-10-21T11:33:24.886Z,10.42
2018-10-21T11:34:34.740Z,10.42
2018-10-21T11:35:24.864Z,10.47
2018-10-21T11:36:24.851Z,10.56
2018-10-21T11:37:25.004Z,10.55
2018-10-21T11:38:24.829Z,10.47
2018-10-21T11:39:24.816Z,10.27
2018-10-21T11:40:24.804Z,10.42
2018-10-21T11:41:24.811Z,10.29
2018-10-21T11:42:24.780Z,10.27
2018-10-21T11:43:24.833Z,10.36
2018-10-21T11:44:24.768Z,10.44
2018-10-21T11:45:24.773Z,10.30
2018-10-21T11:46:24.770Z,10.07
2018-10-21T11:47:24.741Z,10.04
2018-10-21T11:48:24.812Z,10.04
2018-10-21T11:49:24.745Z,10.08
2018-10-21T11:50:24.700Z,10.04
2018-10-21T11:51:24.693Z,10.05
2018-10-21T11:52:24.706Z,10.30
2018-10-21T11:53:24.665Z,10.47
2018-10-21T11:54:24.659Z,10.48
2018-10-21T11:55:24.696Z,10.51
2018-10-21T11:56:24.631Z,10.68
2018-10-21T11:57:24.627Z,10.60
2018-10-21T11:58:24.616Z,10.47
2018-10-21T11:59:24.599Z,10.33
2018-10-21T12:00:24.614Z,10.22
2018-10-21T12:01:24.678Z,10.18
2018-10-21T12:02:24.591Z,9.94
2018-10-21T12:03:24.603Z,9.96
2018-10-21T12:04:24.571Z,10.07
2018-10-21T12:05:34.781Z,10.36
2018-10-21T12:06:24.519Z,10.40
2018-10-21T12:07:24.549Z,10.64
2018-10-21T12:08:24.512Z,10.88
2018-10-21T12:09:24.492Z,10.78
2018-10-21T12:10:24.476Z,10.82
2018-10-21T12:11:24.467Z,11.17
2018-10-21T12:12:24.454Z,11.36
2018-10-21T12:13:24.497Z,11.79
2018-10-21T12:14:24.431Z,12.19
2018-10-21T12:15:24.426Z,12.24
2018-10-21T12:16:24.429Z,12.13
2018-10-21T12:17:24.455Z,12.13
2018-10-21T12:18:24.405Z,12.01
2018-10-21T12:19:24.419Z,11.91
2018-10-21T12:20:24.365Z,12.19
2018-10-21T12:21:24.381Z,12.13
2018-10-21T12:22:24.512Z,11.75
2018-10-21T12:23:24.370Z,11.51
2018-10-21T12:24:24.320Z,11.43
2018-10-21T12:25:24.461Z,11.29
2018-10-21T12:26:24.312Z,10.92
2018-10-21T12:27:24.291Z,10.86
2018-10-21T12:28:24.278Z,10.78
2018-10-21T12:29:24.267Z,10.63
2018-10-21T12:30:24.253Z,10.68
2018-10-21T12:31:24.293Z,10.71
2018-10-21T12:32:24.241Z,10.74
2018-10-21T12:33:24.239Z,10.78
2018-10-21T12:34:24.214Z,10.86
2018-10-21T12:35:24.251Z,10.96
2018-10-21T12:36:34.867Z,10.76
2018-10-21T12:37:24.184Z,10.63
2018-10-21T12:38:24.163Z,10.45
2018-10-21T12:39:24.165Z,10.34
2018-10-21T12:40:24.150Z,10.26
2018-10-21T12:41:24.139Z,10.22
2018-10-21T12:42:24.162Z,10.14
2018-10-21T12:43:24.133Z,10.08
2018-10-21T12:44:24.110Z,10.23
2018-10-21T12:45:24.136Z,10.14
2018-10-21T12:46:24.082Z,10.11
2018-10-21T12:47:24.098Z,10.08
2018-10-21T12:48:24.082Z,10.07
2018-10-21T12:49:24.054Z,9.99
2018-10-21T12:50:24.033Z,10.05
2018-10-21T12:51:24.027Z,10.11
2018-10-21T12:52:24.017Z,10.01
2018-10-21T12:53:24.007Z,9.91
2018-10-21T12:54:24.099Z,9.87
2018-10-21T12:55:23.982Z,9.94
2018-10-21T12:56:23.974Z,9.84
2018-10-21T12:57:23.959Z,9.87
2018-10-21T12:58:23.948Z,9.81
2018-10-21T12:59:23.944Z,9.81
2018-10-21T13:00:23.964Z,9.74
2018-10-21T13:01:23.920Z,9.74
2018-10-21T13:02:23.915Z,9.69
2018-10-21T13:03:23.891Z,9.68
2018-10-21T13:04:23.899Z,9.61
2018-10-21T13:05:23.871Z,9.60
2018-10-21T13:06:23.906Z,9.58
2018-10-21T13:07:34.120Z,9.47
2018-10-21T13:08:23.841Z,9.48
2018-10-21T13:09:23.849Z,9.48
2018-10-21T13:10:23.814Z,9.53
2018-10-21T13:11:23.801Z,9.51
2018-10-21T13:12:23.816Z,9.53
2018-10-21T13:13:23.869Z,9.46
2018-10-21T13:14:23.767Z,9.43
2018-10-21T13:15:23.764Z,9.38